sensor_id;sensor_type;location;lat;lon;timestamp;P1;durP1;ratioP1;P2;durP2;ratioP2
13415;SDS011;6779;50.150;8.680;2023-06-10T00:02:10;10.33;;;9.33;;
13415;SDS011;6779;50.150;8.680;2023-06-10T00:04:36;11.57;;;9.77;;
13415;SDS011;6779;50.150;8.680;2023-06-10T00:07:04;10.07;;;9.27;;
13415;SDS011;6779;50.150;8.680;2023-06-10T00:09:36;10.23;;;8.53;;
13415;SDS011;6779;50.150;8.680;2023-06-10T00:12:05;11.93;;;9.47;;
13415;SDS011;6779;50.150;8.680;2023-06-10T00:14:38;9.57;;;8.77;;
13415;SDS011;6779;50.150;8.680;2023-06-10T00:17:04;10.30;;;9.30;;
13415;SDS011;6779;50.150;8.680;2023-06-10T00:19:30;10.23;;;8.97;;
13415;SDS011;6779;50.150;8.680;2023-06-10T00:21:56;10.33;;;9.30;;
13415;SDS011;6779;50.150;8.680;2023-06-10T00:24:22;10.40;;;9.30;;
13415;SDS011;6779;50.150;8.680;2023-06-10T00:26:48;10.70;;;9.67;;
13415;SDS011;6779;50.150;8.680;2023-06-10T00:29:13;10.90;;;9.80;;
13415;SDS011;6779;50.150;8.680;2023-06-10T00:31:39;13.43;;;10.00;;
13415;SDS011;6779;50.150;8.680;2023-06-10T00:34:04;11.13;;;9.97;;
13415;SDS011;6779;50.150;8.680;2023-06-10T00:36:30;11.63;;;9.53;;
13415;SDS011;6779;50.150;8.680;2023-06-10T00:38:55;9.93;;;9.03;;
13415;SDS011;6779;50.150;8.680;2023-06-10T00:41:21;9.97;;;8.97;;
13415;SDS011;6779;50.150;8.680;2023-06-10T00:43:47;11.03;;;9.93;;
13415;SDS011;6779;50.150;8.680;2023-06-10T00:46:12;9.97;;;8.97;;
13415;SDS011;6779;50.150;8.680;2023-06-10T00:48:39;10.73;;;9.73;;
13415;SDS011;6779;50.150;8.680;2023-06-10T00:51:05;11.10;;;10.00;;
13415;SDS011;6779;50.150;8.680;2023-06-10T00:53:31;10.93;;;9.40;;
13415;SDS011;6779;50.150;8.680;2023-06-10T00:55:57;10.20;;;9.20;;
13415;SDS011;6779;50.150;8.680;2023-06-10T00:58:23;10.23;;;9.23;;
13415;SDS011;6779;50.150;8.680;2023-06-10T01:00:49;10.07;;;9.17;;
13415;SDS011;6779;50.150;8.680;2023-06-10T01:03:14;10.70;;;9.70;;
13415;SDS011;6779;50.150;8.680;2023-06-10T01:05:42;12.13;;;9.90;;
13415;SDS011;6779;50.150;8.680;2023-06-10T01:10:47;12.50;;;10.00;;
13415;SDS011;6779;50.150;8.680;2023-06-10T01:13:15;11.20;;;9.80;;
13415;SDS011;6779;50.150;8.680;2023-06-10T01:15:41;11.27;;;9.57;;
13415;SDS011;6779;50.150;8.680;2023-06-10T01:18:07;11.27;;;9.60;;
13415;SDS011;6779;50.150;8.680;2023-06-10T01:20:34;10.47;;;9.50;;
13415;SDS011;6779;50.150;8.680;2023-06-10T01:23:01;10.40;;;9.33;;
13415;SDS011;6779;50.150;8.680;2023-06-10T01:25:28;11.83;;;10.30;;
13415;SDS011;6779;50.150;8.680;2023-06-10T01:28:08;11.37;;;9.47;;
13415;SDS011;6779;50.150;8.680;2023-06-10T01:30:44;10.90;;;9.87;;
13415;SDS011;6779;50.150;8.680;2023-06-10T01:33:12;12.07;;;10.07;;
13415;SDS011;6779;50.150;8.680;2023-06-10T01:35:38;12.93;;;10.27;;
13415;SDS011;6779;50.150;8.680;2023-06-10T01:38:05;11.07;;;9.97;;
13415;SDS011;6779;50.150;8.680;2023-06-10T01:40:31;10.80;;;9.90;;
13415;SDS011;6779;50.150;8.680;2023-06-10T01:42:57;11.10;;;9.90;;
13415;SDS011;6779;50.150;8.680;2023-06-10T01:45:22;13.87;;;10.60;;
13415;SDS011;6779;50.150;8.680;2023-06-10T01:47:48;11.23;;;10.20;;
13415;SDS011;6779;50.150;8.680;2023-06-10T01:50:13;12.47;;;9.70;;
13415;SDS011;6779;50.150;8.680;2023-06-10T01:52:38;11.53;;;9.97;;
13415;SDS011;6779;50.150;8.680;2023-06-10T01:55:04;11.03;;;9.70;;
13415;SDS011;6779;50.150;8.680;2023-06-10T01:57:29;11.40;;;9.93;;
13415;SDS011;6779;50.150;8.680;2023-06-10T01:59:55;12.03;;;10.00;;
13415;SDS011;6779;50.150;8.680;2023-06-10T02:02:20;12.17;;;9.57;;
13415;SDS011;6779;50.150;8.680;2023-06-10T02:04:46;11.37;;;9.93;;
13415;SDS011;6779;50.150;8.680;2023-06-10T02:07:12;13.47;;;10.40;;
13415;SDS011;6779;50.150;8.680;2023-06-10T02:09:37;11.03;;;10.03;;
13415;SDS011;6779;50.150;8.680;2023-06-10T02:12:03;11.50;;;10.40;;
13415;SDS011;6779;50.150;8.680;2023-06-10T02:14:28;11.60;;;10.50;;
13415;SDS011;6779;50.150;8.680;2023-06-10T02:16:54;11.10;;;10.00;;
13415;SDS011;6779;50.150;8.680;2023-06-10T02:19:21;11.33;;;10.10;;
13415;SDS011;6779;50.150;8.680;2023-06-10T02:21:47;11.90;;;10.70;;
13415;SDS011;6779;50.150;8.680;2023-06-10T02:24:12;11.00;;;10.00;;
13415;SDS011;6779;50.150;8.680;2023-06-10T02:26:38;12.73;;;10.83;;
13415;SDS011;6779;50.150;8.680;2023-06-10T02:29:03;11.23;;;10.13;;
13415;SDS011;6779;50.150;8.680;2023-06-10T02:31:28;11.40;;;10.20;;
13415;SDS011;6779;50.150;8.680;2023-06-10T02:33:54;10.80;;;9.70;;
13415;SDS011;6779;50.150;8.680;2023-06-10T02:36:19;10.70;;;9.60;;
13415;SDS011;6779;50.150;8.680;2023-06-10T02:38:46;10.63;;;9.33;;
13415;SDS011;6779;50.150;8.680;2023-06-10T02:41:11;12.33;;;10.33;;
13415;SDS011;6779;50.150;8.680;2023-06-10T02:43:37;11.53;;;10.33;;
13415;SDS011;6779;50.150;8.680;2023-06-10T02:46:02;10.67;;;9.67;;
13415;SDS011;6779;50.150;8.680;2023-06-10T02:48:27;12.80;;;10.50;;
13415;SDS011;6779;50.150;8.680;2023-06-10T02:50:53;11.60;;;10.40;;
13415;SDS011;6779;50.150;8.680;2023-06-10T02:53:18;10.87;;;9.53;;
13415;SDS011;6779;50.150;8.680;2023-06-10T02:55:43;10.50;;;9.60;;
13415;SDS011;6779;50.150;8.680;2023-06-10T02:58:09;10.70;;;9.70;;
13415;SDS011;6779;50.150;8.680;2023-06-10T03:00:34;10.97;;;9.80;;
13415;SDS011;6779;50.150;8.680;2023-06-10T03:03:00;13.23;;;10.30;;
13415;SDS011;6779;50.150;8.680;2023-06-10T03:05:28;10.23;;;9.00;;
13415;SDS011;6779;50.150;8.680;2023-06-10T03:07:54;12.47;;;11.17;;
13415;SDS011;6779;50.150;8.680;2023-06-10T03:10:19;11.10;;;10.00;;
13415;SDS011;6779;50.150;8.680;2023-06-10T03:12:45;11.20;;;10.10;;
13415;SDS011;6779;50.150;8.680;2023-06-10T03:15:10;12.13;;;10.87;;
13415;SDS011;6779;50.150;8.680;2023-06-10T03:17:35;10.83;;;9.83;;
13415;SDS011;6779;50.150;8.680;2023-06-10T03:20:01;12.13;;;10.40;;
13415;SDS011;6779;50.150;8.680;2023-06-10T03:22:26;12.83;;;11.10;;
13415;SDS011;6779;50.150;8.680;2023-06-10T03:24:52;11.53;;;10.07;;
13415;SDS011;6779;50.150;8.680;2023-06-10T03:27:18;11.53;;;10.33;;
13415;SDS011;6779;50.150;8.680;2023-06-10T03:29:43;11.17;;;10.10;;
13415;SDS011;6779;50.150;8.680;2023-06-10T03:32:08;12.13;;;11.03;;
13415;SDS011;6779;50.150;8.680;2023-06-10T03:34:34;11.03;;;9.93;;
13415;SDS011;6779;50.150;8.680;2023-06-10T03:36:59;11.13;;;9.93;;
13415;SDS011;6779;50.150;8.680;2023-06-10T03:39:25;11.63;;;10.43;;
13415;SDS011;6779;50.150;8.680;2023-06-10T03:41:53;11.57;;;10.47;;
13415;SDS011;6779;50.150;8.680;2023-06-10T03:44:19;10.67;;;9.67;;
13415;SDS011;6779;50.150;8.680;2023-06-10T03:46:44;11.17;;;10.07;;
13415;SDS011;6779;50.150;8.680;2023-06-10T03:49:10;12.53;;;11.00;;
13415;SDS011;6779;50.150;8.680;2023-06-10T03:51:36;11.43;;;10.23;;
13415;SDS011;6779;50.150;8.680;2023-06-10T03:54:01;11.67;;;9.80;;
13415;SDS011;6779;50.150;8.680;2023-06-10T03:56:27;11.30;;;10.00;;
13415;SDS011;6779;50.150;8.680;2023-06-10T03:58:53;12.53;;;10.17;;
13415;SDS011;6779;50.150;8.680;2023-06-10T04:01:19;10.30;;;9.20;;
13415;SDS011;6779;50.150;8.680;2023-06-10T04:03:45;10.97;;;10.00;;
13415;SDS011;6779;50.150;8.680;2023-06-10T04:06:13;10.83;;;9.83;;
13415;SDS011;6779;50.150;8.680;2023-06-10T04:08:39;10.20;;;9.23;;
13415;SDS011;6779;50.150;8.680;2023-06-10T04:11:05;10.90;;;9.80;;
13415;SDS011;6779;50.150;8.680;2023-06-10T04:13:30;11.90;;;10.03;;
13415;SDS011;6779;50.150;8.680;2023-06-10T04:15:56;11.93;;;9.90;;
13415;SDS011;6779;50.150;8.680;2023-06-10T04:18:21;10.20;;;9.13;;
13415;SDS011;6779;50.150;8.680;2023-06-10T04:20:47;10.53;;;9.47;;
13415;SDS011;6779;50.150;8.680;2023-06-10T04:23:12;10.73;;;9.83;;
13415;SDS011;6779;50.150;8.680;2023-06-10T04:25:38;10.17;;;9.27;;
13415;SDS011;6779;50.150;8.680;2023-06-10T04:28:03;9.70;;;8.80;;
13415;SDS011;6779;50.150;8.680;2023-06-10T04:30:28;11.17;;;9.20;;
13415;SDS011;6779;50.150;8.680;2023-06-10T04:32:56;10.43;;;8.67;;
13415;SDS011;6779;50.150;8.680;2023-06-10T04:35:21;11.33;;;8.93;;
13415;SDS011;6779;50.150;8.680;2023-06-10T04:37:46;9.27;;;8.37;;
13415;SDS011;6779;50.150;8.680;2023-06-10T04:40:12;10.27;;;9.37;;
13415;SDS011;6779;50.150;8.680;2023-06-10T04:42:37;10.40;;;8.70;;
13415;SDS011;6779;50.150;8.680;2023-06-10T04:45:02;10.97;;;9.30;;
13415;SDS011;6779;50.150;8.680;2023-06-10T04:47:31;9.47;;;8.57;;
13415;SDS011;6779;50.150;8.680;2023-06-10T04:49:59;12.23;;;9.07;;
13415;SDS011;6779;50.150;8.680;2023-06-10T04:52:25;10.50;;;9.33;;
13415;SDS011;6779;50.150;8.680;2023-06-10T04:54:50;9.97;;;8.83;;
13415;SDS011;6779;50.150;8.680;2023-06-10T04:57:16;9.80;;;8.80;;
13415;SDS011;6779;50.150;8.680;2023-06-10T04:59:41;9.77;;;8.87;;
13415;SDS011;6779;50.150;8.680;2023-06-10T05:02:06;10.07;;;8.90;;
13415;SDS011;6779;50.150;8.680;2023-06-10T05:04:32;9.80;;;8.63;;
13415;SDS011;6779;50.150;8.680;2023-06-10T05:06:57;10.20;;;8.00;;
13415;SDS011;6779;50.150;8.680;2023-06-10T05:09:22;9.37;;;8.37;;
13415;SDS011;6779;50.150;8.680;2023-06-10T05:11:47;10.03;;;9.03;;
13415;SDS011;6779;50.150;8.680;2023-06-10T05:14:13;11.70;;;8.63;;
13415;SDS011;6779;50.150;8.680;2023-06-10T05:16:39;9.23;;;8.10;;
13415;SDS011;6779;50.150;8.680;2023-06-10T05:19:04;9.80;;;8.30;;
13415;SDS011;6779;50.150;8.680;2023-06-10T05:21:30;8.70;;;7.80;;
13415;SDS011;6779;50.150;8.680;2023-06-10T05:23:55;9.47;;;8.57;;
13415;SDS011;6779;50.150;8.680;2023-06-10T05:26:20;9.53;;;8.43;;
13415;SDS011;6779;50.150;8.680;2023-06-10T05:28:46;10.53;;;9.43;;
13415;SDS011;6779;50.150;8.680;2023-06-10T05:31:11;9.50;;;8.50;;
13415;SDS011;6779;50.150;8.680;2023-06-10T05:33:36;9.20;;;8.33;;
13415;SDS011;6779;50.150;8.680;2023-06-10T05:36:02;9.37;;;8.40;;
13415;SDS011;6779;50.150;8.680;2023-06-10T05:38:27;9.00;;;8.20;;
13415;SDS011;6779;50.150;8.680;2023-06-10T05:40:52;9.97;;;8.20;;
13415;SDS011;6779;50.150;8.680;2023-06-10T05:43:18;9.80;;;8.90;;
13415;SDS011;6779;50.150;8.680;2023-06-10T05:45:43;9.20;;;8.27;;
13415;SDS011;6779;50.150;8.680;2023-06-10T05:48:09;8.40;;;7.50;;
13415;SDS011;6779;50.150;8.680;2023-06-10T05:50:34;8.93;;;8.00;;
13415;SDS011;6779;50.150;8.680;2023-06-10T05:53:03;9.07;;;8.13;;
13415;SDS011;6779;50.150;8.680;2023-06-10T05:55:29;8.10;;;7.30;;
13415;SDS011;6779;50.150;8.680;2023-06-10T05:57:58;9.10;;;8.23;;
13415;SDS011;6779;50.150;8.680;2023-06-10T06:00:24;9.87;;;7.27;;
13415;SDS011;6779;50.150;8.680;2023-06-10T06:02:50;9.17;;;7.90;;
13415;SDS011;6779;50.150;8.680;2023-06-10T06:05:16;8.70;;;7.83;;
13415;SDS011;6779;50.150;8.680;2023-06-10T06:07:41;9.47;;;7.37;;
13415;SDS011;6779;50.150;8.680;2023-06-10T06:10:06;9.20;;;8.30;;
13415;SDS011;6779;50.150;8.680;2023-06-10T06:12:32;11.80;;;8.03;;
13415;SDS011;6779;50.150;8.680;2023-06-10T06:14:57;8.93;;;8.03;;
13415;SDS011;6779;50.150;8.680;2023-06-10T06:17:22;8.77;;;7.63;;
13415;SDS011;6779;50.150;8.680;2023-06-10T06:19:48;9.40;;;7.53;;
13415;SDS011;6779;50.150;8.680;2023-06-10T06:22:14;8.13;;;7.40;;
13415;SDS011;6779;50.150;8.680;2023-06-10T06:24:39;9.20;;;7.20;;
13415;SDS011;6779;50.150;8.680;2023-06-10T06:27:05;8.37;;;7.33;;
13415;SDS011;6779;50.150;8.680;2023-06-10T06:29:30;8.27;;;7.33;;
13415;SDS011;6779;50.150;8.680;2023-06-10T06:31:56;8.80;;;7.90;;
13415;SDS011;6779;50.150;8.680;2023-06-10T06:34:21;8.83;;;7.43;;
13415;SDS011;6779;50.150;8.680;2023-06-10T06:36:46;8.40;;;7.10;;
13415;SDS011;6779;50.150;8.680;2023-06-10T06:39:11;9.77;;;7.20;;
13415;SDS011;6779;50.150;8.680;2023-06-10T06:41:37;7.70;;;6.97;;
13415;SDS011;6779;50.150;8.680;2023-06-10T06:44:02;7.90;;;7.10;;
13415;SDS011;6779;50.150;8.680;2023-06-10T06:46:27;7.73;;;6.90;;
13415;SDS011;6779;50.150;8.680;2023-06-10T06:48:53;8.47;;;7.63;;
13415;SDS011;6779;50.150;8.680;2023-06-10T06:51:18;8.00;;;7.20;;
13415;SDS011;6779;50.150;8.680;2023-06-10T06:53:44;9.30;;;7.30;;
13415;SDS011;6779;50.150;8.680;2023-06-10T06:56:11;8.50;;;7.30;;
13415;SDS011;6779;50.150;8.680;2023-06-10T06:58:36;10.93;;;7.83;;
13415;SDS011;6779;50.150;8.680;2023-06-10T07:01:02;8.13;;;7.23;;
13415;SDS011;6779;50.150;8.680;2023-06-10T07:03:27;10.30;;;7.37;;
13415;SDS011;6779;50.150;8.680;2023-06-10T07:05:52;7.90;;;7.10;;
13415;SDS011;6779;50.150;8.680;2023-06-10T07:08:17;8.07;;;7.27;;
13415;SDS011;6779;50.150;8.680;2023-06-10T07:10:43;8.43;;;7.57;;
13415;SDS011;6779;50.150;8.680;2023-06-10T07:13:08;9.37;;;7.50;;
13415;SDS011;6779;50.150;8.680;2023-06-10T07:15:33;8.20;;;7.50;;
13415;SDS011;6779;50.150;8.680;2023-06-10T07:17:59;9.27;;;7.33;;
13415;SDS011;6779;50.150;8.680;2023-06-10T07:20:24;13.80;;;7.57;;
13415;SDS011;6779;50.150;8.680;2023-06-10T07:22:49;8.67;;;7.53;;
13415;SDS011;6779;50.150;8.680;2023-06-10T07:25:15;8.17;;;7.37;;
13415;SDS011;6779;50.150;8.680;2023-06-10T07:27:40;8.43;;;7.63;;
13415;SDS011;6779;50.150;8.680;2023-06-10T07:30:06;8.47;;;7.33;;
13415;SDS011;6779;50.150;8.680;2023-06-10T07:32:33;8.13;;;7.23;;
13415;SDS011;6779;50.150;8.680;2023-06-10T07:34:58;9.67;;;7.77;;
13415;SDS011;6779;50.150;8.680;2023-06-10T07:37:23;8.13;;;7.33;;
13415;SDS011;6779;50.150;8.680;2023-06-10T07:39:49;9.00;;;7.30;;
13415;SDS011;6779;50.150;8.680;2023-06-10T07:42:14;8.27;;;6.73;;
13415;SDS011;6779;50.150;8.680;2023-06-10T07:44:39;9.27;;;7.30;;
13415;SDS011;6779;50.150;8.680;2023-06-10T07:47:05;9.30;;;8.27;;
13415;SDS011;6779;50.150;8.680;2023-06-10T07:49:30;8.60;;;7.73;;
13415;SDS011;6779;50.150;8.680;2023-06-10T07:51:56;10.80;;;8.67;;
13415;SDS011;6779;50.150;8.680;2023-06-10T07:54:21;9.87;;;7.43;;
13415;SDS011;6779;50.150;8.680;2023-06-10T07:56:47;8.43;;;7.63;;
13415;SDS011;6779;50.150;8.680;2023-06-10T07:59:13;8.60;;;7.67;;
13415;SDS011;6779;50.150;8.680;2023-06-10T08:01:38;9.17;;;7.73;;
13415;SDS011;6779;50.150;8.680;2023-06-10T08:04:05;8.60;;;7.70;;
13415;SDS011;6779;50.150;8.680;2023-06-10T08:06:30;9.93;;;8.37;;
13415;SDS011;6779;50.150;8.680;2023-06-10T08:08:55;8.87;;;7.93;;
13415;SDS011;6779;50.150;8.680;2023-06-10T08:11:21;8.73;;;7.87;;
13415;SDS011;6779;50.150;8.680;2023-06-10T08:13:46;8.57;;;7.67;;
13415;SDS011;6779;50.150;8.680;2023-06-10T08:16:11;9.17;;;8.17;;
13415;SDS011;6779;50.150;8.680;2023-06-10T08:18:37;8.17;;;7.37;;
13415;SDS011;6779;50.150;8.680;2023-06-10T08:21:02;10.97;;;8.37;;
13415;SDS011;6779;50.150;8.680;2023-06-10T08:23:27;7.63;;;6.93;;
13415;SDS011;6779;50.150;8.680;2023-06-10T08:25:53;9.87;;;8.03;;
13415;SDS011;6779;50.150;8.680;2023-06-10T08:28:18;8.67;;;7.80;;
13415;SDS011;6779;50.150;8.680;2023-06-10T08:30:43;8.67;;;7.77;;
13415;SDS011;6779;50.150;8.680;2023-06-10T08:33:10;7.87;;;6.87;;
13415;SDS011;6779;50.150;8.680;2023-06-10T08:35:35;8.73;;;7.40;;
13415;SDS011;6779;50.150;8.680;2023-06-10T08:38:00;9.23;;;7.37;;
13415;SDS011;6779;50.150;8.680;2023-06-10T08:40:25;9.57;;;7.50;;
13415;SDS011;6779;50.150;8.680;2023-06-10T08:42:54;8.50;;;7.60;;
13415;SDS011;6779;50.150;8.680;2023-06-10T08:45:27;7.50;;;6.80;;
13415;SDS011;6779;50.150;8.680;2023-06-10T08:47:56;7.87;;;7.17;;
13415;SDS011;6779;50.150;8.680;2023-06-10T08:50:22;7.60;;;6.90;;
13415;SDS011;6779;50.150;8.680;2023-06-10T08:52:48;8.37;;;6.60;;
13415;SDS011;6779;50.150;8.680;2023-06-10T08:55:18;8.68;;;6.95;;
13415;SDS011;6779;50.150;8.680;2023-06-10T08:57:50;7.03;;;6.33;;
13415;SDS011;6779;50.150;8.680;2023-06-10T09:00:16;7.77;;;6.97;;
13415;SDS011;6779;50.150;8.680;2023-06-10T09:02:42;9.60;;;7.00;;
13415;SDS011;6779;50.150;8.680;2023-06-10T09:05:08;8.00;;;7.30;;
13415;SDS011;6779;50.150;8.680;2023-06-10T09:07:34;7.50;;;6.77;;
13415;SDS011;6779;50.150;8.680;2023-06-10T09:10:01;8.00;;;7.07;;
13415;SDS011;6779;50.150;8.680;2023-06-10T09:12:29;7.77;;;6.97;;
13415;SDS011;6779;50.150;8.680;2023-06-10T09:14:54;7.28;;;6.57;;
13415;SDS011;6779;50.150;8.680;2023-06-10T09:17:20;10.02;;;7.47;;
13415;SDS011;6779;50.150;8.680;2023-06-10T09:19:45;7.78;;;6.43;;
13415;SDS011;6779;50.150;8.680;2023-06-10T09:22:11;6.65;;;6.00;;
13415;SDS011;6779;50.150;8.680;2023-06-10T09:24:36;8.15;;;5.95;;
13415;SDS011;6779;50.150;8.680;2023-06-10T09:27:05;7.45;;;6.70;;
13415;SDS011;6779;50.150;8.680;2023-06-10T09:29:37;7.70;;;6.30;;
13415;SDS011;6779;50.150;8.680;2023-06-10T09:32:10;6.53;;;5.88;;
13415;SDS011;6779;50.150;8.680;2023-06-10T09:34:35;6.35;;;5.70;;
13415;SDS011;6779;50.150;8.680;2023-06-10T09:37:01;6.32;;;5.72;;
13415;SDS011;6779;50.150;8.680;2023-06-10T09:39:27;6.28;;;5.60;;
13415;SDS011;6779;50.150;8.680;2023-06-10T09:41:52;7.07;;;5.25;;
13415;SDS011;6779;50.150;8.680;2023-06-10T09:44:19;5.80;;;5.32;;
13415;SDS011;6779;50.150;8.680;2023-06-10T09:46:46;6.10;;;5.50;;
13415;SDS011;6779;50.150;8.680;2023-06-10T09:49:12;5.93;;;5.43;;
13415;SDS011;6779;50.150;8.680;2023-06-10T09:51:37;5.72;;;5.10;;
13415;SDS011;6779;50.150;8.680;2023-06-10T09:54:03;6.07;;;5.47;;
13415;SDS011;6779;50.150;8.680;2023-06-10T09:56:33;5.85;;;5.40;;
13415;SDS011;6779;50.150;8.680;2023-06-10T09:58:59;5.90;;;5.30;;
13415;SDS011;6779;50.150;8.680;2023-06-10T10:01:24;5.93;;;5.07;;
13415;SDS011;6779;50.150;8.680;2023-06-10T10:03:50;6.00;;;5.28;;
13415;SDS011;6779;50.150;8.680;2023-06-10T10:06:16;4.97;;;4.57;;
13415;SDS011;6779;50.150;8.680;2023-06-10T10:08:42;5.57;;;5.05;;
13415;SDS011;6779;50.150;8.680;2023-06-10T10:11:08;5.15;;;4.80;;
13415;SDS011;6779;50.150;8.680;2023-06-10T10:13:34;5.82;;;5.40;;
13415;SDS011;6779;50.150;8.680;2023-06-10T10:16:02;5.60;;;5.03;;
13415;SDS011;6779;50.150;8.680;2023-06-10T10:18:29;5.35;;;4.85;;
13415;SDS011;6779;50.150;8.680;2023-06-10T10:20:56;7.78;;;5.00;;
13415;SDS011;6779;50.150;8.680;2023-06-10T10:23:25;6.25;;;5.47;;
13415;SDS011;6779;50.150;8.680;2023-06-10T10:25:55;6.15;;;5.55;;
13415;SDS011;6779;50.150;8.680;2023-06-10T10:28:21;5.35;;;4.85;;
13415;SDS011;6779;50.150;8.680;2023-06-10T10:30:50;6.22;;;4.90;;
13415;SDS011;6779;50.150;8.680;2023-06-10T10:33:22;5.70;;;5.15;;
13415;SDS011;6779;50.150;8.680;2023-06-10T10:35:53;6.20;;;5.80;;
13415;SDS011;6779;50.150;8.680;2023-06-10T10:38:19;5.80;;;5.20;;
13415;SDS011;6779;50.150;8.680;2023-06-10T10:40:44;6.15;;;5.55;;
13415;SDS011;6779;50.150;8.680;2023-06-10T10:43:10;5.47;;;4.90;;
13415;SDS011;6779;50.150;8.680;2023-06-10T10:45:36;7.45;;;6.10;;
13415;SDS011;6779;50.150;8.680;2023-06-10T10:48:11;5.75;;;5.13;;
13415;SDS011;6779;50.150;8.680;2023-06-10T10:50:37;5.95;;;5.35;;
13415;SDS011;6779;50.150;8.680;2023-06-10T10:53:03;5.47;;;4.97;;
13415;SDS011;6779;50.150;8.680;2023-06-10T10:55:30;6.70;;;4.75;;
13415;SDS011;6779;50.150;8.680;2023-06-10T10:58:05;5.38;;;4.88;;
13415;SDS011;6779;50.150;8.680;2023-06-10T11:00:32;4.78;;;4.40;;
13415;SDS011;6779;50.150;8.680;2023-06-10T11:02:58;5.57;;;5.07;;
13415;SDS011;6779;50.150;8.680;2023-06-10T11:05:31;7.43;;;5.38;;
13415;SDS011;6779;50.150;8.680;2023-06-10T11:10:57;6.05;;;4.60;;
13415;SDS011;6779;50.150;8.680;2023-06-10T11:13:23;6.40;;;5.90;;
13415;SDS011;6779;50.150;8.680;2023-06-10T11:15:50;4.85;;;4.45;;
13415;SDS011;6779;50.150;8.680;2023-06-10T11:18:29;5.35;;;4.95;;
13415;SDS011;6779;50.150;8.680;2023-06-10T11:20:59;5.38;;;4.88;;
13415;SDS011;6779;50.150;8.680;2023-06-10T11:26:11;4.65;;;4.35;;
13415;SDS011;6779;50.150;8.680;2023-06-10T11:28:40;5.55;;;4.95;;
13415;SDS011;6779;50.150;8.680;2023-06-10T11:31:06;5.40;;;4.65;;
13415;SDS011;6779;50.150;8.680;2023-06-10T11:33:32;6.05;;;4.50;;
13415;SDS011;6779;50.150;8.680;2023-06-10T11:35:57;5.93;;;4.25;;
13415;SDS011;6779;50.150;8.680;2023-06-10T11:38:25;4.88;;;4.40;;
13415;SDS011;6779;50.150;8.680;2023-06-10T11:40:51;5.10;;;4.60;;
13415;SDS011;6779;50.150;8.680;2023-06-10T11:43:17;5.07;;;4.68;;
13415;SDS011;6779;50.150;8.680;2023-06-10T11:45:42;5.55;;;4.68;;
13415;SDS011;6779;50.150;8.680;2023-06-10T11:48:09;5.60;;;5.18;;
13415;SDS011;6779;50.150;8.680;2023-06-10T11:50:34;6.22;;;5.38;;
13415;SDS011;6779;50.150;8.680;2023-06-10T11:52:59;6.90;;;4.60;;
13415;SDS011;6779;50.150;8.680;2023-06-10T11:55:27;5.95;;;5.00;;
13415;SDS011;6779;50.150;8.680;2023-06-10T11:58:18;6.70;;;6.00;;
13415;SDS011;6779;50.150;8.680;2023-06-10T12:03:13;8.38;;;5.78;;
13415;SDS011;6779;50.150;8.680;2023-06-10T12:05:39;6.93;;;6.15;;
13415;SDS011;6779;50.150;8.680;2023-06-10T12:08:11;5.43;;;4.93;;
13415;SDS011;6779;50.150;8.680;2023-06-10T12:10:40;6.18;;;5.65;;
13415;SDS011;6779;50.150;8.680;2023-06-10T12:13:06;15.70;;;14.27;;
13415;SDS011;6779;50.150;8.680;2023-06-10T12:15:32;8.48;;;7.78;;
13415;SDS011;6779;50.150;8.680;2023-06-10T12:17:58;6.18;;;5.57;;
13415;SDS011;6779;50.150;8.680;2023-06-10T12:20:25;6.93;;;5.57;;
13415;SDS011;6779;50.150;8.680;2023-06-10T12:22:51;5.97;;;5.40;;
13415;SDS011;6779;50.150;8.680;2023-06-10T12:25:16;5.43;;;4.90;;
13415;SDS011;6779;50.150;8.680;2023-06-10T12:27:51;5.47;;;5.00;;
13415;SDS011;6779;50.150;8.680;2023-06-10T12:30:21;6.30;;;5.28;;
13415;SDS011;6779;50.150;8.680;2023-06-10T12:32:47;7.20;;;5.57;;
13415;SDS011;6779;50.150;8.680;2023-06-10T12:35:15;7.53;;;5.43;;
13415;SDS011;6779;50.150;8.680;2023-06-10T12:37:42;5.85;;;5.20;;
13415;SDS011;6779;50.150;8.680;2023-06-10T12:40:19;5.68;;;5.10;;
13415;SDS011;6779;50.150;8.680;2023-06-10T12:42:50;6.53;;;5.47;;
13415;SDS011;6779;50.150;8.680;2023-06-10T12:45:16;7.72;;;5.82;;
13415;SDS011;6779;50.150;8.680;2023-06-10T12:47:51;7.63;;;5.60;;
13415;SDS011;6779;50.150;8.680;2023-06-10T12:50:16;6.28;;;5.60;;
13415;SDS011;6779;50.150;8.680;2023-06-10T12:52:42;7.97;;;6.22;;
13415;SDS011;6779;50.150;8.680;2023-06-10T12:55:07;6.40;;;5.78;;
13415;SDS011;6779;50.150;8.680;2023-06-10T12:57:33;5.07;;;4.57;;
13415;SDS011;6779;50.150;8.680;2023-06-10T12:59:58;8.35;;;5.95;;
13415;SDS011;6779;50.150;8.680;2023-06-10T13:02:28;6.18;;;5.65;;
13415;SDS011;6779;50.150;8.680;2023-06-10T13:04:54;6.78;;;5.78;;
13415;SDS011;6779;50.150;8.680;2023-06-10T13:07:19;6.55;;;5.18;;
13415;SDS011;6779;50.150;8.680;2023-06-10T13:09:44;6.20;;;5.60;;
13415;SDS011;6779;50.150;8.680;2023-06-10T13:12:10;10.23;;;5.00;;
13415;SDS011;6779;50.150;8.680;2023-06-10T13:14:36;6.38;;;5.60;;
13415;SDS011;6779;50.150;8.680;2023-06-10T13:17:03;5.97;;;5.38;;
13415;SDS011;6779;50.150;8.680;2023-06-10T13:19:30;6.43;;;5.70;;
13415;SDS011;6779;50.150;8.680;2023-06-10T13:21:56;5.60;;;5.10;;
13415;SDS011;6779;50.150;8.680;2023-06-10T13:24:21;7.85;;;6.47;;
13415;SDS011;6779;50.150;8.680;2023-06-10T13:26:47;6.07;;;5.50;;
13415;SDS011;6779;50.150;8.680;2023-06-10T13:29:12;5.80;;;5.40;;
13415;SDS011;6779;50.150;8.680;2023-06-10T13:31:39;6.40;;;5.70;;
13415;SDS011;6779;50.150;8.680;2023-06-10T13:34:05;6.38;;;5.57;;
13415;SDS011;6779;50.150;8.680;2023-06-10T13:36:31;5.70;;;5.20;;
13415;SDS011;6779;50.150;8.680;2023-06-10T13:38:56;6.07;;;5.47;;
13415;SDS011;6779;50.150;8.680;2023-06-10T13:41:21;6.88;;;5.10;;
13415;SDS011;6779;50.150;8.680;2023-06-10T13:43:46;5.85;;;5.28;;
13415;SDS011;6779;50.150;8.680;2023-06-10T13:46:12;7.07;;;4.75;;
13415;SDS011;6779;50.150;8.680;2023-06-10T13:48:38;5.57;;;5.07;;
13415;SDS011;6779;50.150;8.680;2023-06-10T13:51:03;5.20;;;4.68;;
13415;SDS011;6779;50.150;8.680;2023-06-10T13:53:29;5.45;;;4.95;;
13415;SDS011;6779;50.150;8.680;2023-06-10T13:55:54;6.32;;;4.78;;
13415;SDS011;6779;50.150;8.680;2023-06-10T13:58:19;5.88;;;4.65;;
13415;SDS011;6779;50.150;8.680;2023-06-10T14:00:44;5.22;;;4.70;;
13415;SDS011;6779;50.150;8.680;2023-06-10T14:03:10;8.60;;;5.15;;
13415;SDS011;6779;50.150;8.680;2023-06-10T14:05:36;5.10;;;4.20;;
13415;SDS011;6779;50.150;8.680;2023-06-10T14:08:01;4.70;;;4.10;;
13415;SDS011;6779;50.150;8.680;2023-06-10T14:10:27;5.22;;;4.72;;
13415;SDS011;6779;50.150;8.680;2023-06-10T14:12:53;7.20;;;5.45;;
13415;SDS011;6779;50.150;8.680;2023-06-10T14:15:18;5.70;;;4.93;;
13415;SDS011;6779;50.150;8.680;2023-06-10T14:17:44;5.40;;;4.90;;
13415;SDS011;6779;50.150;8.680;2023-06-10T14:20:09;5.25;;;4.78;;
13415;SDS011;6779;50.150;8.680;2023-06-10T14:22:35;5.03;;;4.63;;
13415;SDS011;6779;50.150;8.680;2023-06-10T14:25:00;4.80;;;4.40;;
13415;SDS011;6779;50.150;8.680;2023-06-10T14:27:25;5.18;;;4.78;;
13415;SDS011;6779;50.150;8.680;2023-06-10T14:29:51;5.68;;;5.05;;
13415;SDS011;6779;50.150;8.680;2023-06-10T14:32:16;7.25;;;4.57;;
13415;SDS011;6779;50.150;8.680;2023-06-10T14:34:41;4.82;;;4.43;;
13415;SDS011;6779;50.150;8.680;2023-06-10T14:37:09;4.93;;;4.50;;
13415;SDS011;6779;50.150;8.680;2023-06-10T14:39:34;4.45;;;4.05;;
13415;SDS011;6779;50.150;8.680;2023-06-10T14:42:00;4.57;;;4.18;;
13415;SDS011;6779;50.150;8.680;2023-06-10T14:44:25;6.45;;;4.57;;
13415;SDS011;6779;50.150;8.680;2023-06-10T14:46:50;5.07;;;4.57;;
13415;SDS011;6779;50.150;8.680;2023-06-10T14:49:16;5.03;;;4.38;;
13415;SDS011;6779;50.150;8.680;2023-06-10T14:51:41;5.70;;;4.45;;
13415;SDS011;6779;50.150;8.680;2023-06-10T14:54:06;6.47;;;4.22;;
13415;SDS011;6779;50.150;8.680;2023-06-10T14:56:31;5.00;;;4.60;;
13415;SDS011;6779;50.150;8.680;2023-06-10T14:58:57;6.93;;;4.40;;
13415;SDS011;6779;50.150;8.680;2023-06-10T15:01:22;4.90;;;4.50;;